createdAt,value
2022-10-19T00:00:18.287Z,10.715278
2022-10-19T00:05:16.442Z,10.629630
2022-10-19T00:10:16.404Z,10.548611
2022-10-19T00:15:16.372Z,10.471111
2022-10-19T00:20:16.481Z,10.210648
2022-10-19T00:25:16.550Z,10.060000
2022-10-19T00:30:16.377Z,9.983796
2022-10-19T00:35:16.400Z,9.854167
2022-10-19T00:40:16.416Z,9.625000
2022-10-19T00:45:16.482Z,9.307870
2022-10-19T00:50:16.322Z,9.020833
2022-10-19T00:55:16.541Z,8.914352
2022-10-19T01:00:16.434Z,8.763889
2022-10-19T01:05:16.540Z,8.591111
2022-10-19T01:10:16.703Z,8.288889
2022-10-19T01:15:16.541Z,8.244444
2022-10-19T01:20:16.486Z,8.051111
2022-10-19T01:25:16.474Z,7.980000
2022-10-19T01:30:16.803Z,7.837778
2022-10-19T01:35:17.128Z,7.680000
2022-10-19T01:40:16.546Z,7.642222
2022-10-19T01:45:16.499Z,7.491111
2022-10-19T01:50:17.299Z,7.473333
2022-10-19T01:55:16.688Z,7.391111
2022-10-19T02:00:16.780Z,7.284444
2022-10-19T02:05:16.579Z,7.253333
2022-10-19T02:10:16.480Z,7.204444
2022-10-19T02:15:18.908Z,7.284188
2022-10-19T02:20:18.967Z,7.178241
2022-10-19T02:25:18.815Z,7.326389
2022-10-19T02:30:16.476Z,7.421296
2022-10-19T02:35:16.416Z,7.480000
2022-10-19T02:40:19.027Z,7.557692
2022-10-19T02:45:18.877Z,7.655093
2022-10-19T02:50:18.813Z,7.787037
2022-10-19T02:55:18.955Z,7.863426
2022-10-19T03:00:19.033Z,7.893519
2022-10-19T03:05:18.844Z,7.840278
2022-10-19T03:10:19.043Z,7.909722
2022-10-19T03:15:18.932Z,7.969907
2022-10-19T03:20:19.174Z,8.043981
2022-10-19T03:25:18.839Z,8.060185
2022-10-19T03:30:19.123Z,8.127315
2022-10-19T03:35:19.121Z,8.180556
2022-10-19T03:40:19.351Z,8.219907
2022-10-19T03:45:18.784Z,8.250000
2022-10-19T03:50:18.820Z,8.340278
2022-10-19T03:55:18.841Z,8.421296
2022-10-19T04:00:19.037Z,8.467593
2022-10-19T04:05:18.773Z,8.576389
2022-10-19T04:10:18.800Z,8.631944
2022-10-19T04:15:18.998Z,8.666667
2022-10-19T04:20:19.371Z,8.756944
2022-10-19T04:25:18.825Z,8.925926
2022-10-19T04:30:19.117Z,9.009259
2022-10-19T04:35:36.440Z,9.085648
2022-10-19T04:40:19.067Z,9.155556
2022-10-19T04:45:19.070Z,9.229167
2022-10-19T04:50:19.066Z,9.261574
2022-10-19T04:55:18.742Z,9.199074
2022-10-19T05:00:19.037Z,9.148148
2022-10-19T05:05:18.829Z,9.185185
2022-10-19T05:10:18.836Z,9.196759
2022-10-19T05:15:18.788Z,9.141204
2022-10-19T05:20:19.111Z,9.136574
2022-10-19T05:25:18.771Z,9.145833
2022-10-19T05:30:19.107Z,9.113426
2022-10-19T05:35:22.334Z,9.111111
2022-10-19T05:40:19.571Z,9.115741
2022-10-19T05:45:18.904Z,9.101852
2022-10-19T05:50:18.973Z,9.106481
2022-10-19T05:55:18.769Z,9.138889
2022-10-19T06:00:18.915Z,9.164352
2022-10-19T06:05:18.760Z,9.187500
2022-10-19T06:10:18.751Z,9.217593
2022-10-19T06:15:18.985Z,9.224537
2022-10-19T06:20:19.102Z,9.256944
2022-10-19T06:25:20.330Z,9.247685
2022-10-19T06:30:19.077Z,9.185185
2022-10-19T06:35:18.863Z,9.187500
2022-10-19T06:40:18.931Z,9.233796
2022-10-19T06:45:18.817Z,9.293981
2022-10-19T06:50:18.759Z,9.425926
2022-10-19T06:55:18.742Z,9.534722
2022-10-19T07:00:18.823Z,9.650463
2022-10-19T07:05:16.444Z,9.657407
2022-10-19T07:10:16.647Z,9.735556
2022-10-19T07:15:16.359Z,9.828889
2022-10-19T07:20:16.452Z,9.902222
2022-10-19T07:25:16.378Z,9.875556
2022-10-19T07:30:16.475Z,9.924444
2022-10-19T07:35:16.439Z,10.004444
2022-10-19T07:40:16.355Z,10.011111
2022-10-19T07:45:16.352Z,9.973333
2022-10-19T07:50:16.366Z,9.984444
2022-10-19T07:55:16.385Z,10.033333
2022-10-19T08:00:16.496Z,10.053333
2022-10-19T08:05:16.927Z,10.093333
2022-10-19T08:10:17.076Z,10.115556
2022-10-19T08:15:16.352Z,10.166667
2022-10-19T08:20:16.587Z,10.235556
2022-10-19T08:25:16.404Z,10.300000
2022-10-19T08:30:16.356Z,10.275556
2022-10-19T08:35:16.361Z,10.366667
2022-10-19T08:40:18.803Z,10.425214
2022-10-19T08:45:16.322Z,10.451389
2022-10-19T08:50:16.766Z,10.528889
2022-10-19T08:55:20.647Z,10.574786
2022-10-19T09:00:18.993Z,10.763889
2022-10-19T09:05:19.159Z,10.784722
2022-10-19T09:10:18.668Z,10.777778
2022-10-19T09:15:18.721Z,10.849537
2022-10-19T09:20:19.319Z,10.942130
2022-10-19T09:25:18.677Z,10.995370
2022-10-19T09:30:18.769Z,11.118056
2022-10-19T09:35:18.767Z,11.247685
2022-10-19T09:40:19.472Z,11.442130
2022-10-19T09:45:18.843Z,11.375000
2022-10-19T09:50:18.747Z,11.277778
2022-10-19T09:55:18.698Z,11.182870
2022-10-19T10:00:18.878Z,11.164352
2022-10-19T10:05:19.011Z,11.263889
2022-10-19T10:10:18.749Z,11.386574
2022-10-19T10:15:18.751Z,11.444444
2022-10-19T10:20:18.858Z,11.481481
2022-10-19T10:25:18.753Z,11.460648
2022-10-19T10:30:18.773Z,11.770833
2022-10-19T10:35:18.778Z,11.870370
2022-10-19T10:40:19.908Z,11.782407
2022-10-19T10:45:16.525Z,11.633333
2022-10-19T10:50:18.766Z,11.568376
2022-10-19T10:55:18.742Z,11.562500
2022-10-19T11:00:19.011Z,11.629630
2022-10-19T11:05:18.967Z,11.685185
2022-10-19T11:10:18.912Z,11.687500
2022-10-19T11:15:19.393Z,11.789352
2022-10-19T11:20:19.197Z,11.675556
2022-10-19T11:25:18.954Z,11.553241
2022-10-19T11:30:18.721Z,11.437500
2022-10-19T11:35:18.643Z,11.296296
2022-10-19T11:40:22.169Z,11.289352
2022-10-19T11:45:16.418Z,11.351852
2022-10-19T11:50:16.295Z,11.462222
2022-10-19T11:55:16.227Z,11.540000
2022-10-19T12:00:37.584Z,11.666667
2022-10-19T12:05:16.257Z,11.740000
2022-10-19T12:10:18.692Z,11.662393
2022-10-19T12:15:18.714Z,11.504630
2022-10-19T12:20:19.851Z,11.393519
2022-10-19T12:25:18.754Z,11.442130
2022-10-19T12:30:18.635Z,11.511574
2022-10-19T12:35:23.811Z,11.590278
2022-10-19T12:40:18.983Z,11.650463
2022-10-19T12:45:18.652Z,11.733796
2022-10-19T12:50:23.899Z,11.738426
2022-10-19T12:55:18.632Z,11.800926
2022-10-19T13:00:18.858Z,11.842593
2022-10-19T13:05:19.019Z,11.729167
2022-10-19T13:10:18.962Z,11.650463
2022-10-19T13:15:18.679Z,11.525463
2022-10-19T13:20:16.267Z,11.534722
2022-10-19T13:25:16.219Z,11.613333
2022-10-19T13:30:16.289Z,11.597778
2022-10-19T13:35:18.617Z,11.619658
2022-10-19T13:40:23.601Z,11.541667
2022-10-19T13:45:18.689Z,11.543981
2022-10-19T13:50:18.786Z,11.439815
2022-10-19T13:55:18.746Z,11.432870
2022-10-19T14:00:18.741Z,11.425926
2022-10-19T14:05:18.694Z,11.287037
2022-10-19T14:10:18.667Z,11.240741
2022-10-19T14:15:18.680Z,11.229167
2022-10-19T14:20:18.625Z,11.252315
2022-10-19T14:25:18.644Z,11.291667
2022-10-19T14:30:18.956Z,11.277778
2022-10-19T14:35:16.170Z,11.277778
2022-10-19T14:40:16.422Z,11.217778
2022-10-19T14:45:16.196Z,11.102222
2022-10-19T14:50:18.560Z,11.081197
2022-10-19T14:55:18.839Z,11.018519
2022-10-19T15:00:18.668Z,11.004630
2022-10-19T15:05:16.383Z,11.000000
2022-10-19T15:10:16.217Z,10.955556
2022-10-19T15:15:16.244Z,10.886667
2022-10-19T15:20:16.357Z,10.766667
2022-10-19T15:25:18.701Z,10.670940
2022-10-19T15:30:18.857Z,10.618056
2022-10-19T15:35:18.581Z,10.666667
2022-10-19T15:40:18.598Z,10.520833
2022-10-19T15:45:18.624Z,10.393519
2022-10-19T15:50:18.714Z,10.386574
2022-10-19T15:55:18.610Z,10.421296
2022-10-19T16:00:18.714Z,10.402778
2022-10-19T16:05:18.585Z,10.319444
2022-10-19T16:10:18.671Z,10.275463
2022-10-19T16:15:18.527Z,10.168981
2022-10-19T16:20:16.247Z,10.046296
2022-10-19T16:25:16.218Z,9.966667
2022-10-19T16:30:16.738Z,9.897778
2022-10-19T16:35:18.548Z,9.777778
2022-10-19T16:40:18.709Z,9.664352
2022-10-19T16:45:19.052Z,9.453704
2022-10-19T16:50:18.946Z,9.203704
2022-10-19T16:55:18.957Z,8.898148
2022-10-19T17:00:18.821Z,8.516204
2022-10-19T17:05:18.924Z,8.189815
2022-10-19T17:10:18.567Z,7.888889
2022-10-19T17:15:41.400Z,7.671296
2022-10-19T17:20:18.717Z,7.608796
2022-10-19T17:25:18.485Z,7.534722
2022-10-19T17:30:18.680Z,7.344907
2022-10-19T17:35:18.567Z,7.208333
2022-10-19T17:40:18.521Z,6.921296
2022-10-19T17:45:18.496Z,6.578704
2022-10-19T17:50:18.847Z,6.317130
2022-10-19T17:55:18.685Z,6.173611
2022-10-19T18:00:18.608Z,6.201389
2022-10-19T18:05:18.531Z,6.238426
2022-10-19T18:10:18.531Z,5.886574
2022-10-19T18:15:18.511Z,5.571759
2022-10-19T18:20:18.534Z,5.493056
2022-10-19T18:25:21.654Z,5.240741
2022-10-19T18:30:18.631Z,5.215812
2022-10-19T18:35:18.853Z,5.076389
2022-10-19T18:40:18.478Z,5.013889
2022-10-19T18:45:18.485Z,4.780093
2022-10-19T18:50:18.524Z,4.437500
2022-10-19T18:55:18.499Z,4.351852
2022-10-19T19:00:18.466Z,4.456019
2022-10-19T19:05:18.474Z,4.280093
2022-10-19T19:10:18.581Z,4.164352
2022-10-19T19:15:18.646Z,4.152778
2022-10-19T19:20:18.555Z,3.891204
2022-10-19T19:25:18.785Z,3.851852
2022-10-19T19:30:18.651Z,4.027778
2022-10-19T19:35:18.653Z,3.997685
2022-10-19T19:40:18.467Z,3.731481
2022-10-19T19:45:18.448Z,3.773148
2022-10-19T19:50:18.698Z,3.388889
2022-10-19T19:55:18.571Z,3.268519
2022-10-19T20:00:18.470Z,3.449074
2022-10-19T20:05:16.088Z,3.337963
2022-10-19T20:10:18.523Z,3.369658
2022-10-19T20:15:18.408Z,3.157407
2022-10-19T20:20:18.483Z,3.293981
2022-10-19T20:25:18.466Z,3.094907
2022-10-19T20:30:18.660Z,2.967593
2022-10-19T20:35:18.437Z,3.009259
2022-10-19T20:40:18.598Z,2.888889
2022-10-19T20:45:18.580Z,2.706019
2022-10-19T20:50:21.670Z,2.726852
2022-10-19T20:55:18.593Z,2.710648
2022-10-19T21:00:18.819Z,2.745370
2022-10-19T21:05:18.538Z,2.701389
2022-10-19T21:10:18.546Z,2.446759
2022-10-19T21:15:18.514Z,2.472222
2022-10-19T21:20:18.526Z,2.608796
2022-10-19T21:25:18.461Z,2.585648
2022-10-19T21:30:18.409Z,2.597222
2022-10-19T21:35:18.429Z,2.479167
2022-10-19T21:40:18.408Z,2.388889
2022-10-19T21:45:29.750Z,2.472222
2022-10-19T21:50:18.522Z,2.807870
2022-10-19T21:55:18.539Z,2.798611
2022-10-19T22:00:17.239Z,2.405093
2022-10-19T22:05:16.276Z,2.456019
2022-10-19T22:10:16.442Z,2.597778
2022-10-19T22:15:16.363Z,2.593333
2022-10-19T22:20:16.130Z,2.146667
2022-10-19T22:25:16.171Z,2.208889
2022-10-19T22:30:16.132Z,2.248889
2022-10-19T22:35:16.075Z,2.197778
2022-10-19T22:40:16.335Z,2.215556
2022-10-19T22:45:16.043Z,2.315556
2022-10-19T22:50:16.034Z,2.151111
2022-10-19T22:55:16.322Z,2.080000
2022-10-19T23:00:16.019Z,2.135556
2022-10-19T23:05:16.130Z,2.366667
2022-10-19T23:10:18.421Z,2.348291
2022-10-19T23:15:18.426Z,1.986111
2022-10-19T23:20:18.409Z,1.988426
2022-10-19T23:25:18.670Z,2.037037
2022-10-19T23:30:18.491Z,1.884259
2022-10-19T23:35:18.468Z,1.620370
2022-10-19T23:40:18.557Z,1.432870
2022-10-19T23:45:18.433Z,1.618056
2022-10-19T23:50:18.485Z,1.615741
2022-10-19T23:55:18.512Z,1.868056
